sensor_id;sensor_type;location;lat;lon;timestamp;P1;durP1;ratioP1;P2;durP2;ratioP2
9461;SDS011;4769;42.660;23.262;2023-01-28T00:01:17;8.53;;;6.27;;
9461;SDS011;4769;42.660;23.262;2023-01-28T00:03:47;6.10;;;5.50;;
9461;SDS011;4769;42.660;23.262;2023-01-28T00:06:15;5.23;;;4.73;;
9461;SDS011;4769;42.660;23.262;2023-01-28T00:08:43;6.83;;;5.60;;
9461;SDS011;4769;42.660;23.262;2023-01-28T00:11:10;6.60;;;5.60;;
9461;SDS011;4769;42.660;23.262;2023-01-28T00:13:40;7.20;;;6.23;;
9461;SDS011;4769;42.660;23.262;2023-01-28T00:16:07;7.63;;;6.57;;
9461;SDS011;4769;42.660;23.262;2023-01-28T00:18:34;8.57;;;6.83;;
9461;SDS011;4769;42.660;23.262;2023-01-28T00:21:02;7.43;;;6.23;;
9461;SDS011;4769;42.660;23.262;2023-01-28T00:23:30;6.30;;;5.67;;
9461;SDS011;4769;42.660;23.262;2023-01-28T00:25:58;7.87;;;6.37;;
9461;SDS011;4769;42.660;23.262;2023-01-28T00:28:26;6.70;;;5.60;;
9461;SDS011;4769;42.660;23.262;2023-01-28T00:30:54;7.20;;;5.83;;
9461;SDS011;4769;42.660;23.262;2023-01-28T00:33:21;6.60;;;5.90;;
9461;SDS011;4769;42.660;23.262;2023-01-28T00:35:55;7.60;;;6.37;;
9461;SDS011;4769;42.660;23.262;2023-01-28T00:38:23;7.63;;;6.53;;
9461;SDS011;4769;42.660;23.262;2023-01-28T00:40:49;7.40;;;5.63;;
9461;SDS011;4769;42.660;23.262;2023-01-28T00:43:16;5.97;;;5.37;;
9461;SDS011;4769;42.660;23.262;2023-01-28T00:45:43;6.70;;;6.00;;
9461;SDS011;4769;42.660;23.262;2023-01-28T00:48:11;6.13;;;5.27;;
9461;SDS011;4769;42.660;23.262;2023-01-28T00:50:38;7.93;;;6.10;;
9461;SDS011;4769;42.660;23.262;2023-01-28T00:53:05;7.40;;;5.80;;
9461;SDS011;4769;42.660;23.262;2023-01-28T00:55:32;6.23;;;5.57;;
9461;SDS011;4769;42.660;23.262;2023-01-28T00:57:59;6.10;;;5.50;;
9461;SDS011;4769;42.660;23.262;2023-01-28T01:00:25;6.17;;;5.57;;
9461;SDS011;4769;42.660;23.262;2023-01-28T01:02:52;6.83;;;6.13;;
9461;SDS011;4769;42.660;23.262;2023-01-28T01:05:20;7.17;;;5.93;;
9461;SDS011;4769;42.660;23.262;2023-01-28T01:07:47;6.43;;;5.73;;
9461;SDS011;4769;42.660;23.262;2023-01-28T01:10:14;7.27;;;5.83;;
9461;SDS011;4769;42.660;23.262;2023-01-28T01:12:44;6.40;;;5.80;;
9461;SDS011;4769;42.660;23.262;2023-01-28T01:15:12;7.97;;;5.83;;
9461;SDS011;4769;42.660;23.262;2023-01-28T01:17:39;6.77;;;6.07;;
9461;SDS011;4769;42.660;23.262;2023-01-28T01:20:08;6.93;;;5.80;;
9461;SDS011;4769;42.660;23.262;2023-01-28T01:22:39;7.37;;;6.00;;
9461;SDS011;4769;42.660;23.262;2023-01-28T01:25:06;7.13;;;6.30;;
9461;SDS011;4769;42.660;23.262;2023-01-28T01:27:33;6.83;;;5.80;;
9461;SDS011;4769;42.660;23.262;2023-01-28T01:30:00;6.87;;;6.17;;
9461;SDS011;4769;42.660;23.262;2023-01-28T01:32:28;7.07;;;6.17;;
9461;SDS011;4769;42.660;23.262;2023-01-28T01:34:55;6.57;;;5.73;;
9461;SDS011;4769;42.660;23.262;2023-01-28T01:37:22;6.67;;;5.73;;
9461;SDS011;4769;42.660;23.262;2023-01-28T01:39:50;8.70;;;7.20;;
9461;SDS011;4769;42.660;23.262;2023-01-28T01:42:17;6.73;;;6.10;;
9461;SDS011;4769;42.660;23.262;2023-01-28T01:44:57;5.87;;;5.00;;
9461;SDS011;4769;42.660;23.262;2023-01-28T01:47:28;7.70;;;5.97;;
9461;SDS011;4769;42.660;23.262;2023-01-28T01:50:00;8.73;;;6.90;;
9461;SDS011;4769;42.660;23.262;2023-01-28T01:52:32;6.87;;;6.17;;
9461;SDS011;4769;42.660;23.262;2023-01-28T01:55:04;6.87;;;5.67;;
9461;SDS011;4769;42.660;23.262;2023-01-28T01:57:35;7.90;;;6.60;;
9461;SDS011;4769;42.660;23.262;2023-01-28T02:00:03;8.13;;;6.73;;
9461;SDS011;4769;42.660;23.262;2023-01-28T02:02:34;11.03;;;7.00;;
9461;SDS011;4769;42.660;23.262;2023-01-28T02:05:03;7.53;;;6.60;;
9461;SDS011;4769;42.660;23.262;2023-01-28T02:07:32;6.90;;;6.00;;
9461;SDS011;4769;42.660;23.262;2023-01-28T02:10:00;7.30;;;6.17;;
9461;SDS011;4769;42.660;23.262;2023-01-28T02:12:29;6.27;;;5.63;;
9461;SDS011;4769;42.660;23.262;2023-01-28T02:15:01;6.83;;;5.70;;
9461;SDS011;4769;42.660;23.262;2023-01-28T02:17:30;6.43;;;5.77;;
9461;SDS011;4769;42.660;23.262;2023-01-28T02:19:58;6.70;;;5.57;;
9461;SDS011;4769;42.660;23.262;2023-01-28T02:22:34;7.17;;;6.30;;
9461;SDS011;4769;42.660;23.262;2023-01-28T02:28:33;7.67;;;6.03;;
9461;SDS011;4769;42.660;23.262;2023-01-28T02:31:07;6.20;;;5.60;;
9461;SDS011;4769;42.660;23.262;2023-01-28T02:33:40;7.80;;;6.70;;
9461;SDS011;4769;42.660;23.262;2023-01-28T02:36:16;7.93;;;6.47;;
9461;SDS011;4769;42.660;23.262;2023-01-28T02:38:49;7.77;;;6.43;;
9461;SDS011;4769;42.660;23.262;2023-01-28T02:41:20;7.37;;;6.40;;
9461;SDS011;4769;42.660;23.262;2023-01-28T02:43:52;6.90;;;6.13;;
9461;SDS011;4769;42.660;23.262;2023-01-28T02:46:20;8.43;;;6.70;;
9461;SDS011;4769;42.660;23.262;2023-01-28T02:49:17;7.17;;;5.83;;
9461;SDS011;4769;42.660;23.262;2023-01-28T02:51:52;7.17;;;6.37;;
9461;SDS011;4769;42.660;23.262;2023-01-28T02:54:32;7.83;;;6.33;;
9461;SDS011;4769;42.660;23.262;2023-01-28T02:57:08;7.70;;;6.77;;
9461;SDS011;4769;42.660;23.262;2023-01-28T02:59:53;7.03;;;6.33;;
9461;SDS011;4769;42.660;23.262;2023-01-28T03:02:28;6.33;;;5.73;;
9461;SDS011;4769;42.660;23.262;2023-01-28T03:05:01;7.90;;;5.70;;
9461;SDS011;4769;42.660;23.262;2023-01-28T03:07:31;7.10;;;6.37;;
9461;SDS011;4769;42.660;23.262;2023-01-28T03:10:02;6.73;;;6.10;;
9461;SDS011;4769;42.660;23.262;2023-01-28T03:12:32;7.40;;;6.67;;
9461;SDS011;4769;42.660;23.262;2023-01-28T03:15:21;6.70;;;6.00;;
9461;SDS011;4769;42.660;23.262;2023-01-28T03:18:10;6.50;;;5.47;;
9461;SDS011;4769;42.660;23.262;2023-01-28T03:21:00;7.27;;;5.90;;
9461;SDS011;4769;42.660;23.262;2023-01-28T03:23:50;8.10;;;6.30;;
9461;SDS011;4769;42.660;23.262;2023-01-28T03:26:40;6.73;;;5.93;;
9461;SDS011;4769;42.660;23.262;2023-01-28T03:29:29;6.00;;;5.40;;
9461;SDS011;4769;42.660;23.262;2023-01-28T03:32:17;6.83;;;5.80;;
9461;SDS011;4769;42.660;23.262;2023-01-28T03:35:02;6.77;;;5.80;;
9461;SDS011;4769;42.660;23.262;2023-01-28T03:37:49;6.77;;;6.00;;
9461;SDS011;4769;42.660;23.262;2023-01-28T03:40:17;6.53;;;5.87;;
9461;SDS011;4769;42.660;23.262;2023-01-28T03:42:45;7.73;;;5.80;;
9461;SDS011;4769;42.660;23.262;2023-01-28T03:45:12;7.00;;;6.30;;
9461;SDS011;4769;42.660;23.262;2023-01-28T03:47:40;7.90;;;6.70;;
9461;SDS011;4769;42.660;23.262;2023-01-28T03:50:08;7.23;;;6.53;;
9461;SDS011;4769;42.660;23.262;2023-01-28T03:52:36;7.40;;;6.50;;
9461;SDS011;4769;42.660;23.262;2023-01-28T03:55:03;6.57;;;5.67;;
9461;SDS011;4769;42.660;23.262;2023-01-28T03:57:37;7.33;;;5.87;;
9461;SDS011;4769;42.660;23.262;2023-01-28T04:00:05;6.77;;;5.83;;
9461;SDS011;4769;42.660;23.262;2023-01-28T04:02:34;6.60;;;6.00;;
9461;SDS011;4769;42.660;23.262;2023-01-28T04:05:06;6.23;;;5.47;;
9461;SDS011;4769;42.660;23.262;2023-01-28T04:07:39;6.70;;;5.93;;
9461;SDS011;4769;42.660;23.262;2023-01-28T04:10:07;6.13;;;5.30;;
9461;SDS011;4769;42.660;23.262;2023-01-28T04:12:34;6.70;;;5.70;;
9461;SDS011;4769;42.660;23.262;2023-01-28T04:15:02;6.70;;;5.77;;
9461;SDS011;4769;42.660;23.262;2023-01-28T04:17:39;7.17;;;6.43;;
9461;SDS011;4769;42.660;23.262;2023-01-28T04:20:10;7.27;;;6.10;;
9461;SDS011;4769;42.660;23.262;2023-01-28T04:22:38;8.27;;;6.83;;
9461;SDS011;4769;42.660;23.262;2023-01-28T04:25:04;7.73;;;6.40;;
9461;SDS011;4769;42.660;23.262;2023-01-28T04:27:32;7.47;;;5.90;;
9461;SDS011;4769;42.660;23.262;2023-01-28T04:29:58;7.13;;;6.43;;
9461;SDS011;4769;42.660;23.262;2023-01-28T04:32:25;7.20;;;6.50;;
9461;SDS011;4769;42.660;23.262;2023-01-28T04:34:52;6.93;;;6.23;;
9461;SDS011;4769;42.660;23.262;2023-01-28T04:37:20;6.50;;;5.83;;
9461;SDS011;4769;42.660;23.262;2023-01-28T04:39:47;6.93;;;5.80;;
9461;SDS011;4769;42.660;23.262;2023-01-28T04:42:13;6.73;;;5.73;;
9461;SDS011;4769;42.660;23.262;2023-01-28T04:44:40;6.13;;;5.50;;
9461;SDS011;4769;42.660;23.262;2023-01-28T04:47:07;7.03;;;6.13;;
9461;SDS011;4769;42.660;23.262;2023-01-28T04:49:34;6.10;;;5.50;;
9461;SDS011;4769;42.660;23.262;2023-01-28T04:52:01;6.77;;;6.07;;
9461;SDS011;4769;42.660;23.262;2023-01-28T04:54:29;6.43;;;5.73;;
9461;SDS011;4769;42.660;23.262;2023-01-28T04:56:55;7.23;;;6.37;;
9461;SDS011;4769;42.660;23.262;2023-01-28T04:59:22;7.40;;;6.40;;
9461;SDS011;4769;42.660;23.262;2023-01-28T05:01:49;7.30;;;6.47;;
9461;SDS011;4769;42.660;23.262;2023-01-28T05:04:16;7.10;;;5.77;;
9461;SDS011;4769;42.660;23.262;2023-01-28T05:06:42;6.80;;;5.90;;
9461;SDS011;4769;42.660;23.262;2023-01-28T05:09:09;7.10;;;6.03;;
9461;SDS011;4769;42.660;23.262;2023-01-28T05:11:38;7.10;;;6.40;;
9461;SDS011;4769;42.660;23.262;2023-01-28T05:14:04;6.70;;;6.00;;
9461;SDS011;4769;42.660;23.262;2023-01-28T05:16:31;7.90;;;6.10;;
9461;SDS011;4769;42.660;23.262;2023-01-28T05:18:59;7.57;;;6.20;;
9461;SDS011;4769;42.660;23.262;2023-01-28T05:21:26;7.10;;;6.40;;
9461;SDS011;4769;42.660;23.262;2023-01-28T05:23:52;6.60;;;5.77;;
9461;SDS011;4769;42.660;23.262;2023-01-28T05:26:19;6.50;;;5.80;;
9461;SDS011;4769;42.660;23.262;2023-01-28T05:28:47;7.40;;;6.17;;
9461;SDS011;4769;42.660;23.262;2023-01-28T05:31:15;6.40;;;5.50;;
9461;SDS011;4769;42.660;23.262;2023-01-28T05:33:42;5.93;;;5.33;;
9461;SDS011;4769;42.660;23.262;2023-01-28T05:36:09;7.70;;;6.57;;
9461;SDS011;4769;42.660;23.262;2023-01-28T05:38:35;8.27;;;6.70;;
9461;SDS011;4769;42.660;23.262;2023-01-28T05:41:02;7.70;;;6.20;;
9461;SDS011;4769;42.660;23.262;2023-01-28T05:43:29;6.80;;;6.07;;
9461;SDS011;4769;42.660;23.262;2023-01-28T05:45:57;8.47;;;5.80;;
9461;SDS011;4769;42.660;23.262;2023-01-28T05:48:24;7.20;;;6.30;;
9461;SDS011;4769;42.660;23.262;2023-01-28T05:50:50;7.10;;;6.07;;
9461;SDS011;4769;42.660;23.262;2023-01-28T05:53:17;6.97;;;6.13;;
9461;SDS011;4769;42.660;23.262;2023-01-28T05:55:46;9.03;;;7.80;;
9461;SDS011;4769;42.660;23.262;2023-01-28T05:58:13;9.07;;;7.07;;
9461;SDS011;4769;42.660;23.262;2023-01-28T06:00:40;7.80;;;6.53;;
9461;SDS011;4769;42.660;23.262;2023-01-28T06:03:08;7.97;;;6.73;;
9461;SDS011;4769;42.660;23.262;2023-01-28T06:05:34;7.10;;;6.30;;
9461;SDS011;4769;42.660;23.262;2023-01-28T06:08:01;6.83;;;5.97;;
9461;SDS011;4769;42.660;23.262;2023-01-28T06:10:28;6.93;;;6.23;;
9461;SDS011;4769;42.660;23.262;2023-01-28T06:12:55;6.70;;;6.00;;
9461;SDS011;4769;42.660;23.262;2023-01-28T06:15:22;8.00;;;6.70;;
9461;SDS011;4769;42.660;23.262;2023-01-28T06:17:49;7.30;;;6.50;;
9461;SDS011;4769;42.660;23.262;2023-01-28T06:20:17;8.13;;;7.00;;
9461;SDS011;4769;42.660;23.262;2023-01-28T06:22:44;7.83;;;6.67;;
9461;SDS011;4769;42.660;23.262;2023-01-28T06:25:10;8.03;;;7.10;;
9461;SDS011;4769;42.660;23.262;2023-01-28T06:27:37;7.77;;;6.97;;
9461;SDS011;4769;42.660;23.262;2023-01-28T06:30:04;8.80;;;7.67;;
9461;SDS011;4769;42.660;23.262;2023-01-28T06:32:32;8.83;;;6.93;;
9461;SDS011;4769;42.660;23.262;2023-01-28T06:34:58;8.60;;;6.67;;
9461;SDS011;4769;42.660;23.262;2023-01-28T06:37:27;7.90;;;6.87;;
9461;SDS011;4769;42.660;23.262;2023-01-28T06:39:53;8.13;;;7.33;;
9461;SDS011;4769;42.660;23.262;2023-01-28T06:42:20;9.70;;;7.70;;
9461;SDS011;4769;42.660;23.262;2023-01-28T06:44:47;8.53;;;7.00;;
9461;SDS011;4769;42.660;23.262;2023-01-28T06:47:14;9.30;;;8.00;;
9461;SDS011;4769;42.660;23.262;2023-01-28T06:49:41;8.80;;;7.00;;
9461;SDS011;4769;42.660;23.262;2023-01-28T06:52:07;8.73;;;7.83;;
9461;SDS011;4769;42.660;23.262;2023-01-28T06:54:36;8.37;;;7.47;;
9461;SDS011;4769;42.660;23.262;2023-01-28T06:57:02;8.60;;;7.50;;
9461;SDS011;4769;42.660;23.262;2023-01-28T06:59:29;10.13;;;7.60;;
9461;SDS011;4769;42.660;23.262;2023-01-28T07:01:56;9.17;;;8.13;;
9461;SDS011;4769;42.660;23.262;2023-01-28T07:04:23;9.43;;;8.40;;
9461;SDS011;4769;42.660;23.262;2023-01-28T07:06:50;9.50;;;8.23;;
9461;SDS011;4769;42.660;23.262;2023-01-28T07:09:16;10.60;;;8.90;;
9461;SDS011;4769;42.660;23.262;2023-01-28T07:11:44;10.33;;;8.60;;
9461;SDS011;4769;42.660;23.262;2023-01-28T07:14:11;10.10;;;8.13;;
9461;SDS011;4769;42.660;23.262;2023-01-28T07:16:38;9.90;;;8.17;;
9461;SDS011;4769;42.660;23.262;2023-01-28T07:19:05;9.30;;;7.77;;
9461;SDS011;4769;42.660;23.262;2023-01-28T07:21:32;14.07;;;10.13;;
9461;SDS011;4769;42.660;23.262;2023-01-28T07:23:58;15.03;;;10.10;;
9461;SDS011;4769;42.660;23.262;2023-01-28T07:26:25;13.13;;;9.33;;
9461;SDS011;4769;42.660;23.262;2023-01-28T07:28:53;12.93;;;9.93;;
9461;SDS011;4769;42.660;23.262;2023-01-28T07:31:20;13.90;;;10.60;;
9461;SDS011;4769;42.660;23.262;2023-01-28T07:33:47;10.13;;;8.70;;
9461;SDS011;4769;42.660;23.262;2023-01-28T07:36:14;11.30;;;8.73;;
9461;SDS011;4769;42.660;23.262;2023-01-28T07:38:43;9.13;;;8.10;;
9461;SDS011;4769;42.660;23.262;2023-01-28T07:41:10;11.13;;;9.07;;
9461;SDS011;4769;42.660;23.262;2023-01-28T07:43:37;11.23;;;9.37;;
9461;SDS011;4769;42.660;23.262;2023-01-28T07:46:05;12.23;;;10.40;;
9461;SDS011;4769;42.660;23.262;2023-01-28T07:48:32;11.63;;;9.40;;
9461;SDS011;4769;42.660;23.262;2023-01-28T07:50:59;10.80;;;9.40;;
9461;SDS011;4769;42.660;23.262;2023-01-28T07:53:26;9.87;;;7.60;;
9461;SDS011;4769;42.660;23.262;2023-01-28T07:55:57;9.30;;;8.30;;
9461;SDS011;4769;42.660;23.262;2023-01-28T07:58:24;9.67;;;8.20;;
9461;SDS011;4769;42.660;23.262;2023-01-28T08:00:54;10.73;;;8.63;;
9461;SDS011;4769;42.660;23.262;2023-01-28T08:03:24;8.83;;;7.70;;
9461;SDS011;4769;42.660;23.262;2023-01-28T08:05:52;9.60;;;8.20;;
9461;SDS011;4769;42.660;23.262;2023-01-28T08:08:20;11.00;;;9.00;;
9461;SDS011;4769;42.660;23.262;2023-01-28T08:10:48;10.73;;;7.83;;
9461;SDS011;4769;42.660;23.262;2023-01-28T08:13:16;9.90;;;8.53;;
9461;SDS011;4769;42.660;23.262;2023-01-28T08:15:43;10.27;;;8.80;;
9461;SDS011;4769;42.660;23.262;2023-01-28T08:18:12;12.17;;;9.87;;
9461;SDS011;4769;42.660;23.262;2023-01-28T08:20:41;13.03;;;10.13;;
9461;SDS011;4769;42.660;23.262;2023-01-28T08:23:11;12.00;;;9.80;;
9461;SDS011;4769;42.660;23.262;2023-01-28T08:25:39;11.60;;;9.37;;
9461;SDS011;4769;42.660;23.262;2023-01-28T08:28:07;11.10;;;9.30;;
9461;SDS011;4769;42.660;23.262;2023-01-28T08:30:35;10.70;;;8.80;;
9461;SDS011;4769;42.660;23.262;2023-01-28T08:33:03;9.33;;;7.83;;
9461;SDS011;4769;42.660;23.262;2023-01-28T08:35:31;11.43;;;8.67;;
9461;SDS011;4769;42.660;23.262;2023-01-28T08:38:00;10.57;;;8.40;;
9461;SDS011;4769;42.660;23.262;2023-01-28T08:40:28;12.67;;;9.47;;
9461;SDS011;4769;42.660;23.262;2023-01-28T08:42:55;13.93;;;10.90;;
9461;SDS011;4769;42.660;23.262;2023-01-28T08:45:23;10.90;;;8.87;;
9461;SDS011;4769;42.660;23.262;2023-01-28T08:47:52;8.83;;;7.90;;
9461;SDS011;4769;42.660;23.262;2023-01-28T08:50:21;10.20;;;8.07;;
9461;SDS011;4769;42.660;23.262;2023-01-28T08:52:53;11.13;;;8.57;;
9461;SDS011;4769;42.660;23.262;2023-01-28T08:55:22;11.27;;;8.90;;
9461;SDS011;4769;42.660;23.262;2023-01-28T08:57:49;10.90;;;8.70;;
9461;SDS011;4769;42.660;23.262;2023-01-28T09:00:16;12.73;;;9.40;;
9461;SDS011;4769;42.660;23.262;2023-01-28T09:02:43;9.73;;;8.50;;
9461;SDS011;4769;42.660;23.262;2023-01-28T09:05:10;12.10;;;9.47;;
9461;SDS011;4769;42.660;23.262;2023-01-28T09:07:39;16.23;;;13.30;;
9461;SDS011;4769;42.660;23.262;2023-01-28T09:10:06;12.60;;;10.40;;
9461;SDS011;4769;42.660;23.262;2023-01-28T09:12:35;10.57;;;8.90;;
9461;SDS011;4769;42.660;23.262;2023-01-28T09:15:02;11.43;;;9.63;;
9461;SDS011;4769;42.660;23.262;2023-01-28T09:17:29;11.40;;;8.83;;
9461;SDS011;4769;42.660;23.262;2023-01-28T09:19:56;11.77;;;9.53;;
9461;SDS011;4769;42.660;23.262;2023-01-28T09:22:23;12.67;;;9.97;;
9461;SDS011;4769;42.660;23.262;2023-01-28T09:24:50;9.90;;;8.43;;
9461;SDS011;4769;42.660;23.262;2023-01-28T09:27:16;11.20;;;8.73;;
9461;SDS011;4769;42.660;23.262;2023-01-28T09:29:45;9.77;;;7.90;;
9461;SDS011;4769;42.660;23.262;2023-01-28T09:32:12;9.20;;;7.60;;
9461;SDS011;4769;42.660;23.262;2023-01-28T09:34:39;11.37;;;8.80;;
9461;SDS011;4769;42.660;23.262;2023-01-28T09:37:06;10.70;;;8.67;;
9461;SDS011;4769;42.660;23.262;2023-01-28T09:39:32;10.63;;;8.30;;
9461;SDS011;4769;42.660;23.262;2023-01-28T09:42:03;13.40;;;9.60;;
9461;SDS011;4769;42.660;23.262;2023-01-28T09:44:51;13.07;;;9.90;;
9461;SDS011;4769;42.660;23.262;2023-01-28T09:47:29;12.70;;;10.10;;
9461;SDS011;4769;42.660;23.262;2023-01-28T09:50:02;11.70;;;9.53;;
9461;SDS011;4769;42.660;23.262;2023-01-28T09:52:33;13.07;;;10.40;;
9461;SDS011;4769;42.660;23.262;2023-01-28T09:55:02;12.90;;;10.00;;
9461;SDS011;4769;42.660;23.262;2023-01-28T09:57:38;15.03;;;10.80;;
9461;SDS011;4769;42.660;23.262;2023-01-28T10:00:12;11.47;;;8.90;;
9461;SDS011;4769;42.660;23.262;2023-01-28T10:02:45;11.10;;;9.40;;
9461;SDS011;4769;42.660;23.262;2023-01-28T10:05:27;11.80;;;9.23;;
9461;SDS011;4769;42.660;23.262;2023-01-28T10:08:00;14.57;;;10.87;;
9461;SDS011;4769;42.660;23.262;2023-01-28T10:10:38;14.17;;;11.00;;
9461;SDS011;4769;42.660;23.262;2023-01-28T10:13:16;12.40;;;10.27;;
9461;SDS011;4769;42.660;23.262;2023-01-28T10:15:51;11.57;;;8.80;;
9461;SDS011;4769;42.660;23.262;2023-01-28T10:18:29;11.87;;;9.20;;
9461;SDS011;4769;42.660;23.262;2023-01-28T10:21:01;12.90;;;9.57;;
9461;SDS011;4769;42.660;23.262;2023-01-28T10:23:35;12.43;;;9.87;;
9461;SDS011;4769;42.660;23.262;2023-01-28T10:26:10;17.97;;;13.60;;
9461;SDS011;4769;42.660;23.262;2023-01-28T10:28:46;14.07;;;10.43;;
9461;SDS011;4769;42.660;23.262;2023-01-28T10:31:20;11.93;;;9.73;;
9461;SDS011;4769;42.660;23.262;2023-01-28T10:33:48;14.67;;;11.37;;
9461;SDS011;4769;42.660;23.262;2023-01-28T10:36:15;16.57;;;11.80;;
9461;SDS011;4769;42.660;23.262;2023-01-28T10:38:43;12.47;;;10.07;;
9461;SDS011;4769;42.660;23.262;2023-01-28T10:41:10;12.80;;;9.90;;
9461;SDS011;4769;42.660;23.262;2023-01-28T10:43:42;12.67;;;9.93;;
9461;SDS011;4769;42.660;23.262;2023-01-28T10:46:11;11.47;;;9.47;;
9461;SDS011;4769;42.660;23.262;2023-01-28T10:48:43;13.17;;;10.23;;
9461;SDS011;4769;42.660;23.262;2023-01-28T10:51:13;13.37;;;10.13;;
9461;SDS011;4769;42.660;23.262;2023-01-28T10:53:40;12.83;;;10.07;;
9461;SDS011;4769;42.660;23.262;2023-01-28T10:56:08;13.87;;;10.73;;
9461;SDS011;4769;42.660;23.262;2023-01-28T10:58:46;13.60;;;10.00;;
9461;SDS011;4769;42.660;23.262;2023-01-28T11:01:15;13.83;;;11.27;;
9461;SDS011;4769;42.660;23.262;2023-01-28T11:03:52;14.33;;;10.83;;
9461;SDS011;4769;42.660;23.262;2023-01-28T11:06:24;12.90;;;10.47;;
9461;SDS011;4769;42.660;23.262;2023-01-28T11:08:52;11.97;;;9.67;;
9461;SDS011;4769;42.660;23.262;2023-01-28T11:11:21;10.87;;;9.27;;
9461;SDS011;4769;42.660;23.262;2023-01-28T11:13:50;10.57;;;8.93;;
9461;SDS011;4769;42.660;23.262;2023-01-28T11:16:19;12.73;;;9.97;;
9461;SDS011;4769;42.660;23.262;2023-01-28T11:18:48;11.77;;;9.77;;
9461;SDS011;4769;42.660;23.262;2023-01-28T11:21:20;9.80;;;8.43;;
9461;SDS011;4769;42.660;23.262;2023-01-28T11:23:49;13.53;;;10.87;;
9461;SDS011;4769;42.660;23.262;2023-01-28T11:26:18;12.37;;;8.93;;
9461;SDS011;4769;42.660;23.262;2023-01-28T11:28:47;10.63;;;8.50;;
9461;SDS011;4769;42.660;23.262;2023-01-28T11:31:16;9.80;;;8.13;;
9461;SDS011;4769;42.660;23.262;2023-01-28T11:33:46;11.50;;;9.83;;
9461;SDS011;4769;42.660;23.262;2023-01-28T11:36:16;12.07;;;10.07;;
9461;SDS011;4769;42.660;23.262;2023-01-28T11:38:47;10.43;;;9.40;;
9461;SDS011;4769;42.660;23.262;2023-01-28T11:41:16;18.20;;;12.63;;
9461;SDS011;4769;42.660;23.262;2023-01-28T11:43:44;18.83;;;14.43;;
9461;SDS011;4769;42.660;23.262;2023-01-28T11:46:17;9.87;;;8.27;;
9461;SDS011;4769;42.660;23.262;2023-01-28T11:49:02;11.00;;;8.97;;
9461;SDS011;4769;42.660;23.262;2023-01-28T11:51:35;10.67;;;8.87;;
9461;SDS011;4769;42.660;23.262;2023-01-28T11:54:14;14.57;;;11.03;;
9461;SDS011;4769;42.660;23.262;2023-01-28T11:56:52;10.70;;;7.73;;
9461;SDS011;4769;42.660;23.262;2023-01-28T11:59:37;17.23;;;12.10;;
9461;SDS011;4769;42.660;23.262;2023-01-28T12:02:19;16.00;;;12.23;;
9461;SDS011;4769;42.660;23.262;2023-01-28T12:05:11;20.93;;;14.50;;
9461;SDS011;4769;42.660;23.262;2023-01-28T12:07:51;10.70;;;8.60;;
9461;SDS011;4769;42.660;23.262;2023-01-28T12:10:28;10.37;;;8.10;;
9461;SDS011;4769;42.660;23.262;2023-01-28T12:13:06;16.27;;;12.40;;
9461;SDS011;4769;42.660;23.262;2023-01-28T12:15:47;10.03;;;8.13;;
9461;SDS011;4769;42.660;23.262;2023-01-28T12:18:28;11.30;;;9.13;;
9461;SDS011;4769;42.660;23.262;2023-01-28T12:21:06;11.77;;;8.43;;
9461;SDS011;4769;42.660;23.262;2023-01-28T12:23:45;10.87;;;8.97;;
9461;SDS011;4769;42.660;23.262;2023-01-28T12:26:28;10.23;;;8.90;;
9461;SDS011;4769;42.660;23.262;2023-01-28T12:29:10;12.13;;;9.33;;
9461;SDS011;4769;42.660;23.262;2023-01-28T12:37:59;12.13;;;10.40;;
9461;SDS011;4769;42.660;23.262;2023-01-28T12:40:39;12.00;;;10.30;;
9461;SDS011;4769;42.660;23.262;2023-01-28T12:43:17;12.87;;;10.60;;
9461;SDS011;4769;42.660;23.262;2023-01-28T12:45:50;12.43;;;9.80;;
9461;SDS011;4769;42.660;23.262;2023-01-28T12:48:21;11.77;;;9.53;;
9461;SDS011;4769;42.660;23.262;2023-01-28T12:50:53;13.70;;;10.93;;
9461;SDS011;4769;42.660;23.262;2023-01-28T12:53:26;12.30;;;10.63;;
9461;SDS011;4769;42.660;23.262;2023-01-28T12:55:59;11.97;;;10.33;;
9461;SDS011;4769;42.660;23.262;2023-01-28T12:58:35;12.23;;;9.90;;
9461;SDS011;4769;42.660;23.262;2023-01-28T13:01:07;11.33;;;9.50;;
9461;SDS011;4769;42.660;23.262;2023-01-28T13:03:39;13.03;;;9.90;;
9461;SDS011;4769;42.660;23.262;2023-01-28T13:06:11;12.97;;;10.87;;
9461;SDS011;4769;42.660;23.262;2023-01-28T13:08:40;11.80;;;10.10;;
9461;SDS011;4769;42.660;23.262;2023-01-28T13:11:09;13.77;;;10.70;;
9461;SDS011;4769;42.660;23.262;2023-01-28T13:13:41;12.63;;;9.60;;
9461;SDS011;4769;42.660;23.262;2023-01-28T13:16:10;13.00;;;10.87;;
9461;SDS011;4769;42.660;23.262;2023-01-28T13:18:44;12.13;;;10.17;;
9461;SDS011;4769;42.660;23.262;2023-01-28T13:21:13;10.93;;;8.27;;
9461;SDS011;4769;42.660;23.262;2023-01-28T13:23:42;11.67;;;9.43;;
9461;SDS011;4769;42.660;23.262;2023-01-28T13:26:24;13.37;;;10.90;;
9461;SDS011;4769;42.660;23.262;2023-01-28T13:29:05;15.43;;;12.67;;
9461;SDS011;4769;42.660;23.262;2023-01-28T13:31:38;14.97;;;11.13;;
9461;SDS011;4769;42.660;23.262;2023-01-28T13:34:07;13.87;;;11.40;;
9461;SDS011;4769;42.660;23.262;2023-01-28T13:36:51;12.70;;;11.00;;
9461;SDS011;4769;42.660;23.262;2023-01-28T13:39:19;13.27;;;10.77;;
9461;SDS011;4769;42.660;23.262;2023-01-28T13:41:48;14.67;;;11.33;;
9461;SDS011;4769;42.660;23.262;2023-01-28T13:44:18;14.33;;;11.93;;
9461;SDS011;4769;42.660;23.262;2023-01-28T13:46:47;15.67;;;11.40;;
9461;SDS011;4769;42.660;23.262;2023-01-28T13:49:14;14.07;;;11.50;;
9461;SDS011;4769;42.660;23.262;2023-01-28T13:51:46;12.67;;;10.80;;
9461;SDS011;4769;42.660;23.262;2023-01-28T13:54:21;12.57;;;11.10;;
9461;SDS011;4769;42.660;23.262;2023-01-28T13:56:54;17.33;;;12.47;;
9461;SDS011;4769;42.660;23.262;2023-01-28T13:59:36;15.33;;;12.20;;
9461;SDS011;4769;42.660;23.262;2023-01-28T14:05:28;13.20;;;10.67;;
9461;SDS011;4769;42.660;23.262;2023-01-28T14:08:21;18.77;;;14.23;;
9461;SDS011;4769;42.660;23.262;2023-01-28T14:11:12;13.10;;;11.30;;
9461;SDS011;4769;42.660;23.262;2023-01-28T14:13:57;13.93;;;11.57;;
9461;SDS011;4769;42.660;23.262;2023-01-28T14:16:48;15.60;;;12.77;;
9461;SDS011;4769;42.660;23.262;2023-01-28T14:19:24;22.30;;;15.60;;
9461;SDS011;4769;42.660;23.262;2023-01-28T14:21:53;16.60;;;13.23;;
9461;SDS011;4769;42.660;23.262;2023-01-28T14:24:21;18.93;;;15.20;;
9461;SDS011;4769;42.660;23.262;2023-01-28T14:26:52;22.87;;;16.53;;
9461;SDS011;4769;42.660;23.262;2023-01-28T14:32:17;19.10;;;14.30;;
9461;SDS011;4769;42.660;23.262;2023-01-28T14:34:46;41.93;;;25.37;;
9461;SDS011;4769;42.660;23.262;2023-01-28T14:37:14;30.43;;;18.80;;
9461;SDS011;4769;42.660;23.262;2023-01-28T14:39:44;31.67;;;20.60;;
9461;SDS011;4769;42.660;23.262;2023-01-28T14:42:16;13.50;;;10.97;;
9461;SDS011;4769;42.660;23.262;2023-01-28T14:44:46;29.70;;;19.60;;
9461;SDS011;4769;42.660;23.262;2023-01-28T14:50:17;19.30;;;13.43;;
9461;SDS011;4769;42.660;23.262;2023-01-28T14:53:05;17.80;;;13.77;;
9461;SDS011;4769;42.660;23.262;2023-01-28T14:55:48;16.50;;;13.30;;
9461;SDS011;4769;42.660;23.262;2023-01-28T14:58:21;17.03;;;13.70;;
9461;SDS011;4769;42.660;23.262;2023-01-28T15:00:51;19.80;;;13.40;;
9461;SDS011;4769;42.660;23.262;2023-01-28T15:03:20;18.37;;;13.80;;
9461;SDS011;4769;42.660;23.262;2023-01-28T15:05:47;19.40;;;14.87;;
9461;SDS011;4769;42.660;23.262;2023-01-28T15:08:20;17.70;;;13.50;;
9461;SDS011;4769;42.660;23.262;2023-01-28T15:10:48;16.33;;;11.97;;
9461;SDS011;4769;42.660;23.262;2023-01-28T15:13:20;16.17;;;12.30;;
9461;SDS011;4769;42.660;23.262;2023-01-28T15:15:50;20.27;;;15.80;;
9461;SDS011;4769;42.660;23.262;2023-01-28T15:18:25;22.40;;;16.37;;
9461;SDS011;4769;42.660;23.262;2023-01-28T15:20:56;15.87;;;12.37;;
9461;SDS011;4769;42.660;23.262;2023-01-28T15:23:24;15.63;;;12.23;;
9461;SDS011;4769;42.660;23.262;2023-01-28T15:25:53;18.13;;;13.10;;
9461;SDS011;4769;42.660;23.262;2023-01-28T15:28:21;18.43;;;14.30;;
9461;SDS011;4769;42.660;23.262;2023-01-28T15:30:52;17.07;;;13.23;;